Time;durP1;ratioP1;P1;durP2;ratioP2;P2;SDS_P1;SDS_P2;PMS_P1;PMS_P2;Temp;Humidity;BMP_temperature;BMP_pressure;BME280_temperature;BME280_humidity;BME280_pressure;Samples;Min_cycle;Max_cycle;Signal;HPM_P1;HPM_P2
2023/04/24 00:02:06;;;;;;;23.60;12.07;;;10.80;99.90;;;;;;5047644;28;20587;-65
2023/04/24 00:04:32;;;;;;;26.53;12.50;;;10.70;99.90;;;;;;5040379;28;20284;-64
2023/04/24 00:06:59;;;;;;;16.60;11.93;;;10.80;99.90;;;;;;5047743;28;20289;-64
2023/04/24 00:09:25;;;;;;;18.20;10.53;;;10.90;99.90;;;;;;5051975;28;20186;-64
2023/04/24 00:11:52;;;;;;;18.87;11.50;;;10.90;99.90;;;;;;5051961;28;20183;-64
2023/04/24 00:14:18;;;;;;;17.70;11.63;;;10.80;99.90;;;;;;5051969;28;20179;-64
2023/04/24 00:16:43;;;;;;;20.23;12.20;;;10.70;99.90;;;;;;5045809;28;20197;-64
2023/04/24 00:19:11;;;;;;;20.37;11.73;;;10.60;99.90;;;;;;5038663;28;20230;-64
2023/04/24 00:21:37;;;;;;;20.63;11.50;;;10.80;99.90;;;;;;5051756;28;20217;-64
2023/04/24 00:24:03;;;;;;;18.63;11.23;;;10.90;99.90;;;;;;5042712;28;20214;-66
2023/04/24 00:26:29;;;;;;;18.37;12.03;;;10.90;99.90;;;;;;5051949;28;20216;-64
2023/04/24 00:28:54;;;;;;;19.67;11.43;;;10.80;99.90;;;;;;5052099;28;20190;-63
2023/04/24 00:31:20;;;;;;;17.83;11.00;;;10.80;99.90;;;;;;5043558;28;20266;-63
2023/04/24 00:33:46;;;;;;;21.00;12.63;;;10.90;99.90;;;;;;5036893;28;20179;-64
2023/04/24 00:36:11;;;;;;;21.37;12.27;;;10.90;99.90;;;;;;5037711;28;20244;-64
2023/04/24 00:38:37;;;;;;;18.93;11.40;;;10.80;99.90;;;;;;5049761;28;20269;-64
2023/04/24 00:41:03;;;;;;;18.90;11.93;;;10.80;99.90;;;;;;5045835;28;20281;-69
2023/04/24 00:43:28;;;;;;;24.17;12.17;;;10.70;99.90;;;;;;5055406;28;20187;-63
2023/04/24 00:45:54;;;;;;;22.37;14.50;;;10.60;99.90;;;;;;5055278;28;20224;-64
2023/04/24 00:48:21;;;;;;;20.97;12.57;;;10.60;99.90;;;;;;5043519;28;20190;-63
2023/04/24 00:50:46;;;;;;;17.80;10.63;;;10.60;99.90;;;;;;5049975;28;20672;-64
2023/04/24 00:53:12;;;;;;;20.30;10.13;;;10.30;99.90;;;;;;5051221;28;20201;-64
2023/04/24 00:55:38;;;;;;;17.73;11.50;;;10.20;99.90;;;;;;5048064;28;20230;-64
2023/04/24 00:58:04;;;;;;;19.70;12.13;;;10.20;99.90;;;;;;5043604;28;20193;-64
2023/04/24 01:00:30;;;;;;;25.33;12.83;;;10.30;99.90;;;;;;5050438;28;20272;-64
2023/04/24 01:02:59;;;;;;;20.87;12.23;;;10.30;99.90;;;;;;5042491;28;20182;-64
2023/04/24 01:05:25;;;;;;;20.30;12.03;;;10.40;99.90;;;;;;5051797;28;20267;-64
2023/04/24 01:07:51;;;;;;;21.37;11.57;;;10.40;99.90;;;;;;5051777;28;20212;-65
2023/04/24 01:10:17;;;;;;;22.93;12.43;;;10.40;99.90;;;;;;5049690;28;20220;-64
2023/04/24 01:12:43;;;;;;;18.90;11.43;;;10.40;99.90;;;;;;5044863;28;20643;-63
2023/04/24 01:15:09;;;;;;;17.60;12.37;;;10.50;99.90;;;;;;5053041;28;20198;-64
2023/04/24 01:17:35;;;;;;;20.03;12.93;;;10.40;99.90;;;;;;5053381;28;20280;-64
2023/04/24 01:20:04;;;;;;;18.40;12.00;;;10.30;99.90;;;;;;5051796;28;20265;-64
2023/04/24 01:22:29;;;;;;;14.60;11.13;;;10.20;99.90;;;;;;5053997;28;20177;-65
2023/04/24 01:24:55;;;;;;;17.83;11.63;;;10.30;99.90;;;;;;5052983;28;20666;-64
2023/04/24 01:27:21;;;;;;;15.70;11.20;;;10.40;99.90;;;;;;5054043;28;20190;-64
2023/04/24 01:29:49;;;;;;;24.67;12.23;;;10.40;99.90;;;;;;5049925;28;20589;-64
2023/04/24 01:32:15;;;;;;;21.50;11.53;;;10.30;99.90;;;;;;5049278;28;20175;-64
2023/04/24 01:34:42;;;;;;;21.80;11.93;;;10.30;99.90;;;;;;5043219;28;20186;-64
2023/04/24 01:37:07;;;;;;;20.90;13.37;;;10.30;99.90;;;;;;5046382;28;20193;-65
2023/04/24 01:39:33;;;;;;;16.57;10.40;;;10.30;99.90;;;;;;5059572;28;20642;-66
2023/04/24 01:42:00;;;;;;;21.60;10.83;;;10.40;99.90;;;;;;5054273;28;20591;-64
2023/04/24 01:44:26;;;;;;;19.83;11.10;;;10.30;99.90;;;;;;5043518;28;20276;-64
2023/04/24 01:46:53;;;;;;;20.17;13.10;;;10.30;99.90;;;;;;5052204;28;20308;-64
2023/04/24 01:49:19;;;;;;;15.27;10.23;;;10.20;99.90;;;;;;5085855;28;20259;-64
2023/04/24 01:51:46;;;;;;;21.00;11.40;;;10.30;99.90;;;;;;5054115;28;20635;-64
2023/04/24 01:54:11;;;;;;;16.03;10.20;;;10.30;99.90;;;;;;5053075;28;20596;-65
2023/04/24 01:56:42;;;;;;;22.50;11.37;;;10.30;99.90;;;;;;5059868;28;20285;-64
2023/04/24 01:59:10;;;;;;;12.87;10.20;;;10.30;99.90;;;;;;5053300;28;20178;-64
2023/04/24 02:01:36;;;;;;;11.77;9.37;;;10.30;99.90;;;;;;5054223;28;20186;-64
2023/04/24 02:04:03;;;;;;;13.97;8.17;;;10.30;99.90;;;;;;5038614;28;20187;-65
2023/04/24 02:06:28;;;;;;;14.10;8.97;;;10.30;99.90;;;;;;5041604;28;20229;-63
2023/04/24 02:08:54;;;;;;;13.47;8.57;;;10.20;99.90;;;;;;5050416;28;20265;-64
2023/04/24 02:11:19;;;;;;;13.20;8.60;;;10.20;99.90;;;;;;5039070;28;20269;-63
2023/04/24 02:13:45;;;;;;;14.27;8.63;;;10.30;99.90;;;;;;5041865;28;20201;-64
2023/04/24 02:16:11;;;;;;;12.50;8.23;;;10.30;99.90;;;;;;5049273;28;20280;-64
2023/04/24 02:18:36;;;;;;;12.23;8.63;;;10.30;99.90;;;;;;5042109;28;20665;-64
2023/04/24 02:21:02;;;;;;;11.83;7.63;;;10.30;99.90;;;;;;5050810;28;20635;-65
2023/04/24 02:23:28;;;;;;;9.43;8.43;;;10.40;99.90;;;;;;5053593;28;20182;-64
2023/04/24 02:25:55;;;;;;;11.47;8.47;;;10.30;99.90;;;;;;5046631;28;20209;-64
2023/04/24 02:28:21;;;;;;;17.10;8.50;;;10.30;99.90;;;;;;5042993;28;20190;-64
2023/04/24 02:30:46;;;;;;;12.33;9.00;;;10.30;99.90;;;;;;5053358;28;20273;-65
2023/04/24 02:33:12;;;;;;;16.03;8.33;;;10.20;99.90;;;;;;5043532;28;20217;-64
2023/04/24 02:35:38;;;;;;;11.53;8.50;;;10.10;99.90;;;;;;5047426;28;20218;-64
2023/04/24 02:38:04;;;;;;;15.57;10.27;;;10.00;99.90;;;;;;5062503;28;20223;-64
2023/04/24 02:40:30;;;;;;;16.20;9.87;;;10.00;99.90;;;;;;5051545;28;20190;-64
2023/04/24 02:42:55;;;;;;;13.63;8.93;;;10.00;99.90;;;;;;5050294;28;20210;-64
2023/04/24 02:45:21;;;;;;;15.43;9.57;;;10.00;99.90;;;;;;5049827;28;20272;-63
2023/04/24 02:47:47;;;;;;;11.60;8.20;;;10.00;99.90;;;;;;5051115;28;20221;-63
2023/04/24 02:50:12;;;;;;;16.37;10.37;;;10.00;99.90;;;;;;5046016;28;20190;-63
2023/04/24 02:52:38;;;;;;;15.93;9.87;;;10.00;99.90;;;;;;5047930;28;20215;-63
2023/04/24 02:55:04;;;;;;;12.40;8.70;;;10.00;99.90;;;;;;5047271;28;20194;-64
2023/04/24 02:57:30;;;;;;;14.33;10.63;;;9.90;99.90;;;;;;5051528;28;20182;-63
2023/04/24 02:59:56;;;;;;;17.40;10.77;;;10.00;99.90;;;;;;5044722;28;20615;-64
2023/04/24 03:02:21;;;;;;;14.63;10.10;;;9.80;99.90;;;;;;5052257;28;20652;-64
2023/04/24 03:04:49;;;;;;;22.37;10.07;;;9.80;99.90;;;;;;5049073;28;20358;-64
2023/04/24 03:07:15;;;;;;;13.70;9.93;;;9.90;99.90;;;;;;5044905;28;20702;-63
2023/04/24 03:09:41;;;;;;;15.20;9.43;;;9.90;99.90;;;;;;5078273;28;20252;-63
2023/04/24 03:12:08;;;;;;;16.87;10.97;;;9.90;99.90;;;;;;5062315;28;20272;-64
2023/04/24 03:14:34;;;;;;;16.40;9.27;;;10.00;99.90;;;;;;5044894;28;20190;-63
2023/04/24 03:17:00;;;;;;;17.13;10.17;;;9.90;99.90;;;;;;5052465;28;20198;-63
2023/04/24 03:19:26;;;;;;;16.67;10.40;;;9.80;99.90;;;;;;5047965;28;20317;-64
2023/04/24 03:21:52;;;;;;;14.57;8.77;;;9.80;99.90;;;;;;5083880;28;20241;-62
2023/04/24 03:24:17;;;;;;;16.27;10.40;;;9.80;99.90;;;;;;5046712;28;20190;-63
2023/04/24 03:26:43;;;;;;;14.13;9.37;;;9.80;99.90;;;;;;5051862;28;20209;-63
2023/04/24 03:29:08;;;;;;;12.00;8.20;;;9.90;99.90;;;;;;5052399;28;20276;-63
2023/04/24 03:31:34;;;;;;;13.70;9.30;;;9.80;99.90;;;;;;5042093;28;20596;-63
2023/04/24 03:34:00;;;;;;;17.27;10.03;;;9.80;99.90;;;;;;5041325;28;20626;-62
2023/04/24 03:36:26;;;;;;;13.37;8.73;;;9.70;99.90;;;;;;5048030;28;20554;-63
2023/04/24 03:38:51;;;;;;;12.37;7.63;;;9.70;99.90;;;;;;5049471;28;20189;-63
2023/04/24 03:41:17;;;;;;;14.10;9.07;;;9.80;99.90;;;;;;5047788;28;20186;-62
2023/04/24 03:43:43;;;;;;;15.57;7.97;;;9.80;99.90;;;;;;5042442;28;20642;-63
2023/04/24 03:46:09;;;;;;;9.23;6.70;;;9.70;99.90;;;;;;5042462;28;20559;-62
2023/04/24 03:48:35;;;;;;;9.90;6.23;;;9.80;99.90;;;;;;5048966;28;20190;-63
2023/04/24 03:51:00;;;;;;;9.00;6.37;;;9.80;99.90;;;;;;5045228;28;20193;-63
2023/04/24 03:53:26;;;;;;;8.87;6.80;;;9.80;99.90;;;;;;5045152;28;20186;-64
2023/04/24 03:55:53;;;;;;;8.20;6.17;;;9.80;99.90;;;;;;5052311;28;20201;-63
2023/04/24 03:58:19;;;;;;;10.00;7.30;;;9.80;99.90;;;;;;5048814;28;20711;-62
2023/04/24 04:00:47;;;;;;;7.90;6.00;;;9.70;99.90;;;;;;5044579;28;20275;-62
2023/04/24 04:03:14;;;;;;;6.80;5.30;;;9.70;99.90;;;;;;5045819;28;20255;-63
2023/04/24 04:05:40;;;;;;;7.53;4.90;;;9.60;99.90;;;;;;5050740;28;20241;-66
2023/04/24 04:08:05;;;;;;;9.30;5.57;;;9.70;99.90;;;;;;5042038;28;20646;-63
2023/04/24 04:10:31;;;;;;;11.73;7.27;;;9.60;99.90;;;;;;5051502;28;20662;-63
2023/04/24 04:12:57;;;;;;;8.30;6.30;;;9.60;99.90;;;;;;5043534;28;20225;-63
2023/04/24 04:15:22;;;;;;;7.57;5.90;;;9.70;99.90;;;;;;5029824;28;20191;-63
2023/04/24 04:17:48;;;;;;;7.40;5.43;;;9.80;99.90;;;;;;5046286;28;20230;-62
2023/04/24 04:20:13;;;;;;;7.67;5.47;;;9.80;99.90;;;;;;5056218;28;20530;-61
2023/04/24 04:22:39;;;;;;;9.40;5.40;;;9.80;99.90;;;;;;5052487;28;20196;-62
2023/04/24 04:25:06;;;;;;;6.33;5.27;;;9.80;99.90;;;;;;5054762;28;20182;-61
2023/04/24 04:27:32;;;;;;;12.47;6.17;;;9.80;99.90;;;;;;5049187;28;20280;-62
2023/04/24 04:30:04;;;;;;;8.63;5.53;;;9.60;99.90;;;;;;5042416;28;20301;-61
2023/04/24 04:32:32;;;;;;;7.27;5.30;;;9.50;99.90;;;;;;5048398;28;20222;-62
2023/04/24 04:35:02;;;;;;;9.03;5.70;;;9.50;99.90;;;;;;5040973;28;20604;-62
2023/04/24 04:37:33;;;;;;;11.93;6.27;;;9.40;99.90;;;;;;5044503;28;20272;-62
2023/04/24 04:39:59;;;;;;;8.27;6.63;;;9.40;99.90;;;;;;5045856;28;20190;-63
2023/04/24 04:42:26;;;;;;;10.77;7.33;;;9.30;99.90;;;;;;5045502;28;20190;-62
2023/04/24 04:44:52;;;;;;;11.00;6.93;;;9.30;99.90;;;;;;5069465;28;20570;-62
2023/04/24 04:47:21;;;;;;;8.77;6.57;;;9.40;99.90;;;;;;5055155;28;20735;-62
2023/04/24 04:49:47;;;;;;;11.43;8.80;;;9.30;99.90;;;;;;5050624;28;20190;-63
2023/04/24 04:52:13;;;;;;;16.93;7.60;;;9.20;99.90;;;;;;5044822;28;20197;-62
2023/04/24 04:54:39;;;;;;;16.17;8.70;;;9.20;99.90;;;;;;5055144;28;20538;-62
2023/04/24 04:57:05;;;;;;;18.03;9.17;;;9.20;99.90;;;;;;5046612;28;20194;-62
2023/04/24 04:59:31;;;;;;;21.53;9.47;;;9.20;99.90;;;;;;5054969;28;20192;-63
2023/04/24 05:01:57;;;;;;;14.00;9.50;;;9.20;99.90;;;;;;5050760;28;20194;-62
2023/04/24 05:04:22;;;;;;;14.03;9.50;;;9.20;99.90;;;;;;5044135;28;20659;-62
2023/04/24 05:06:48;;;;;;;15.10;9.97;;;9.30;99.90;;;;;;5050212;28;20674;-62
2023/04/24 05:09:14;;;;;;;16.27;10.37;;;9.30;99.90;;;;;;5054696;28;20186;-62
2023/04/24 05:11:39;;;;;;;14.87;8.97;;;9.30;99.90;;;;;;5052762;28;20204;-63
2023/04/24 05:14:05;;;;;;;11.30;8.90;;;9.30;99.90;;;;;;5050374;28;20240;-62
2023/04/24 05:16:31;;;;;;;14.40;9.50;;;9.30;99.90;;;;;;5044312;28;20217;-63
2023/04/24 05:18:56;;;;;;;15.93;9.67;;;9.30;99.90;;;;;;5045361;28;20234;-62
2023/04/24 05:21:22;;;;;;;19.40;9.70;;;9.30;99.90;;;;;;5052003;28;20654;-62
2023/04/24 05:23:48;;;;;;;16.87;9.57;;;9.30;99.90;;;;;;5054891;28;20190;-62
2023/04/24 05:26:14;;;;;;;12.83;8.90;;;9.30;99.90;;;;;;5052130;28;20209;-62
2023/04/24 05:28:40;;;;;;;16.33;9.87;;;9.30;99.90;;;;;;5053387;28;20258;-65
2023/04/24 05:31:06;;;;;;;16.20;9.13;;;9.30;99.90;;;;;;5049472;28;20214;-62
2023/04/24 05:33:32;;;;;;;16.10;10.50;;;9.20;99.90;;;;;;5053829;28;20700;-62
2023/04/24 05:35:57;;;;;;;18.80;9.80;;;9.10;99.90;;;;;;5052901;28;20194;-61
2023/04/24 05:38:23;;;;;;;17.87;11.20;;;9.10;99.90;;;;;;5052952;28;20209;-61
2023/04/24 05:40:49;;;;;;;11.77;8.10;;;9.20;99.90;;;;;;5051217;28;20197;-63
2023/04/24 05:43:14;;;;;;;17.10;10.50;;;9.20;99.90;;;;;;5044159;28;20186;-63
2023/04/24 05:45:40;;;;;;;15.47;9.67;;;9.10;99.90;;;;;;5041650;28;20678;-63
2023/04/24 05:48:06;;;;;;;16.20;9.80;;;9.10;99.90;;;;;;5050456;28;20205;-63
2023/04/24 05:50:32;;;;;;;16.53;9.90;;;9.20;99.90;;;;;;5053001;28;20190;-64
2023/04/24 05:53:02;;;;;;;22.93;10.83;;;9.20;99.90;;;;;;5047059;28;20273;-64
2023/04/24 05:55:27;;;;;;;15.00;9.33;;;9.20;99.90;;;;;;5049983;28;20247;-64
2023/04/24 05:57:53;;;;;;;21.70;10.63;;;9.20;99.90;;;;;;5049388;28;20183;-64
2023/04/24 06:00:19;;;;;;;18.40;9.70;;;9.20;99.90;;;;;;5048843;28;20209;-64
2023/04/24 06:02:46;;;;;;;21.07;10.00;;;9.20;99.90;;;;;;5035067;28;20187;-65
2023/04/24 06:05:12;;;;;;;16.07;9.87;;;9.30;99.90;;;;;;5048697;28;20178;-64
2023/04/24 06:07:38;;;;;;;14.37;9.80;;;9.20;99.90;;;;;;5053335;28;20693;-65
2023/04/24 06:10:04;;;;;;;14.13;9.47;;;9.20;99.90;;;;;;5043557;28;20215;-64
2023/04/24 06:12:30;;;;;;;17.83;10.03;;;9.10;99.90;;;;;;5040648;28;20598;-65
2023/04/24 06:14:55;;;;;;;20.00;9.80;;;9.20;99.90;;;;;;5047750;28;20197;-65
2023/04/24 06:17:21;;;;;;;14.03;9.47;;;9.20;99.90;;;;;;5049033;28;20189;-64
2023/04/24 06:19:47;;;;;;;18.73;9.63;;;9.10;99.90;;;;;;5053582;28;20234;-64
2023/04/24 06:22:13;;;;;;;25.20;11.93;;;9.10;99.90;;;;;;5049742;28;20593;-64
2023/04/24 06:24:40;;;;;;;17.97;11.30;;;9.10;99.90;;;;;;5040213;28;20583;-63
2023/04/24 06:27:06;;;;;;;15.13;10.37;;;9.10;99.90;;;;;;5042368;28;20217;-63
2023/04/24 06:29:33;;;;;;;19.30;11.87;;;9.20;99.90;;;;;;5049606;28;20255;-65
2023/04/24 06:31:58;;;;;;;22.67;12.27;;;9.30;99.90;;;;;;5039240;28;20194;-64
2023/04/24 06:34:24;;;;;;;16.97;9.17;;;9.30;99.90;;;;;;5046054;28;20217;-64
2023/04/24 06:36:50;;;;;;;17.17;11.03;;;9.30;99.90;;;;;;5051920;28;20276;-64
2023/04/24 06:39:16;;;;;;;17.43;10.50;;;9.30;99.90;;;;;;5044166;28;20194;-64
2023/04/24 06:41:41;;;;;;;20.57;11.33;;;9.40;99.90;;;;;;5044791;28;20190;-65
2023/04/24 06:44:07;;;;;;;19.30;11.33;;;9.50;99.90;;;;;;5051636;28;20216;-63
2023/04/24 06:46:33;;;;;;;23.57;10.03;;;9.50;99.90;;;;;;5085156;28;20574;-65
2023/04/24 06:48:58;;;;;;;20.17;10.70;;;9.50;99.90;;;;;;5047040;28;20536;-65
2023/04/24 06:51:25;;;;;;;23.67;12.43;;;9.30;99.90;;;;;;5045565;28;20198;-65
2023/04/24 06:53:55;;;;;;;23.70;12.53;;;9.30;99.90;;;;;;5037855;28;20193;-64
2023/04/24 06:56:22;;;;;;;18.77;10.40;;;9.30;99.90;;;;;;5050170;28;20559;-65
2023/04/24 06:58:47;;;;;;;17.23;10.80;;;9.40;99.90;;;;;;5052277;28;20612;-64
2023/04/24 07:01:13;;;;;;;20.20;13.50;;;9.30;99.90;;;;;;5051383;28;20276;-65
2023/04/24 07:03:39;;;;;;;24.90;12.70;;;9.40;99.90;;;;;;5045471;28;20186;-64
2023/04/24 07:06:05;;;;;;;22.37;12.60;;;9.40;99.90;;;;;;5052387;28;20245;-65
2023/04/24 07:08:32;;;;;;;22.20;12.57;;;9.50;99.90;;;;;;5050794;28;20243;-64
2023/04/24 07:10:58;;;;;;;28.73;13.13;;;9.60;99.90;;;;;;5046716;28;20200;-62
2023/04/24 07:13:25;;;;;;;24.93;13.17;;;9.80;99.90;;;;;;5051681;28;20185;-64
2023/04/24 07:15:52;;;;;;;20.23;13.13;;;9.80;99.90;;;;;;5051407;28;20209;-65
2023/04/24 07:18:18;;;;;;;25.30;13.57;;;9.70;99.90;;;;;;5047975;28;20230;-63
2023/04/24 07:20:44;;;;;;;25.30;13.03;;;9.60;99.90;;;;;;5052200;28;20672;-65
2023/04/24 07:23:10;;;;;;;21.87;11.90;;;9.60;99.90;;;;;;5052328;28;20562;-63
2023/04/24 07:25:35;;;;;;;22.10;12.87;;;9.60;99.90;;;;;;5052931;28;20202;-66
2023/04/24 07:28:01;;;;;;;20.93;11.37;;;9.70;99.90;;;;;;5051137;28;20252;-64
2023/04/24 07:30:28;;;;;;;22.53;13.77;;;9.70;99.90;;;;;;5073052;28;20193;-64
2023/04/24 07:32:55;;;;;;;21.70;11.87;;;9.80;99.90;;;;;;5042658;28;20198;-64
2023/04/24 07:35:21;;;;;;;19.50;11.17;;;9.80;99.90;;;;;;5051879;28;20170;-64
2023/04/24 07:37:47;;;;;;;19.23;11.47;;;9.90;99.90;;;;;;5043229;28;20187;-64
2023/04/24 07:40:13;;;;;;;21.33;10.93;;;9.90;99.90;;;;;;5050167;28;20178;-64
2023/04/24 07:42:39;;;;;;;20.73;10.60;;;9.80;99.90;;;;;;5045447;28;20273;-65
2023/04/24 07:45:05;;;;;;;20.30;10.70;;;9.80;99.90;;;;;;5051572;28;20273;-64
2023/04/24 07:47:32;;;;;;;20.90;10.40;;;9.80;99.90;;;;;;5051591;28;20274;-65
2023/04/24 07:49:58;;;;;;;19.03;9.40;;;9.90;99.90;;;;;;5035346;28;20194;-64
2023/04/24 07:52:24;;;;;;;16.37;9.30;;;9.90;99.90;;;;;;5051368;28;20190;-64
2023/04/24 07:54:50;;;;;;;17.47;9.93;;;10.00;99.90;;;;;;5042039;28;20182;-64
2023/04/24 07:57:16;;;;;;;18.53;10.47;;;9.90;99.90;;;;;;5044399;28;20575;-64
2023/04/24 07:59:42;;;;;;;19.10;9.43;;;10.00;99.90;;;;;;5046045;28;20194;-64
2023/04/24 08:02:07;;;;;;;16.67;8.80;;;10.20;99.90;;;;;;5048082;28;20194;-64
2023/04/24 08:04:33;;;;;;;20.73;9.67;;;10.20;99.90;;;;;;5050321;28;20260;-65
2023/04/24 08:06:59;;;;;;;16.85;9.30;;;10.30;99.90;;;;;;5046831;28;20209;-65
2023/04/24 08:09:25;;;;;;;13.15;8.95;;;10.20;99.90;;;;;;5078159;28;20280;-65
2023/04/24 08:11:50;;;;;;;16.97;9.27;;;10.20;99.90;;;;;;5044424;28;20193;-64
2023/04/24 08:14:16;;;;;;;13.80;8.47;;;10.20;99.90;;;;;;5049271;28;20205;-64
2023/04/24 08:16:42;;;;;;;18.47;9.30;;;10.30;99.90;;;;;;5051874;28;20193;-64
2023/04/24 08:19:08;;;;;;;12.17;7.27;;;10.20;99.90;;;;;;5042678;28;20428;-64
2023/04/24 08:21:33;;;;;;;15.03;8.17;;;10.20;99.90;;;;;;5059937;28;20190;-64
2023/04/24 08:23:59;;;;;;;13.20;7.67;;;10.20;99.90;;;;;;5051850;28;20239;-64
2023/04/24 08:26:25;;;;;;;14.93;8.30;;;10.20;99.90;;;;;;5050796;28;20213;-65
2023/04/24 08:28:50;;;;;;;19.95;10.50;;;10.90;99.90;;;;;;5049042;28;20201;-65
2023/04/24 08:31:16;;;;;;;16.77;8.32;;;11.80;99.90;;;;;;5040396;28;20652;-65
2023/04/24 08:33:44;;;;;;;14.07;8.77;;;13.00;99.90;;;;;;5049126;28;20224;-65
2023/04/24 08:36:10;;;;;;;12.55;7.38;;;13.70;99.90;;;;;;5048357;28;20650;-65
2023/04/24 08:38:36;;;;;;;14.25;7.22;;;13.90;99.90;;;;;;5045089;28;20190;-64
2023/04/24 08:41:01;;;;;;;10.57;5.88;;;13.80;99.90;;;;;;5051119;28;20190;-64
2023/04/24 08:43:28;;;;;;;10.25;6.00;;;13.30;99.90;;;;;;5046524;28;20217;-64
2023/04/24 08:45:56;;;;;;;12.98;6.53;;;12.80;99.90;;;;;;5051558;28;20709;-65
2023/04/24 08:48:22;;;;;;;9.15;6.32;;;12.20;99.90;;;;;;5046835;28;20181;-64
2023/04/24 08:50:51;;;;;;;14.32;6.15;;;11.70;99.90;;;;;;5050201;28;20186;-65
2023/04/24 08:53:19;;;;;;;16.50;6.40;;;11.40;99.90;;;;;;5037788;28;20282;-65
2023/04/24 08:55:47;;;;;;;14.63;7.05;;;11.30;99.90;;;;;;5046594;28;20182;-64
2023/04/24 08:58:14;;;;;;;9.02;5.97;;;11.20;99.90;;;;;;5051671;28;20654;-65
2023/04/24 09:00:46;;;;;;;15.25;6.30;;;11.00;99.90;;;;;;5047560;28;20174;-65
2023/04/24 09:03:16;;;;;;;11.55;6.97;;;11.20;99.90;;;;;;5046706;28;20186;-65
2023/04/24 09:05:47;;;;;;;14.18;6.13;;;11.50;99.90;;;;;;5048698;28;20567;-65
2023/04/24 09:08:14;;;;;;;10.77;6.55;;;11.70;99.90;;;;;;5041886;28;20248;-65
2023/04/24 09:10:40;;;;;;;8.70;5.72;;;12.00;99.90;;;;;;5042165;28;20193;-65
2023/04/24 09:13:08;;;;;;;7.82;5.50;;;12.00;99.90;;;;;;5054513;28;20194;-64
2023/04/24 09:15:35;;;;;;;13.07;5.90;;;12.10;99.90;;;;;;5054737;28;20188;-65
2023/04/24 09:18:01;;;;;;;10.07;5.32;;;12.30;99.90;;;;;;5054597;28;20233;-64
2023/04/24 09:20:26;;;;;;;7.88;4.93;;;12.50;99.90;;;;;;5050505;28;20195;-65
2023/04/24 09:22:57;;;;;;;10.05;4.57;;;12.70;99.90;;;;;;5055049;28;20194;-66
2023/04/24 09:25:30;;;;;;;5.20;4.57;;;12.40;99.90;;;;;;5042938;28;20197;-65
2023/04/24 09:28:04;;;;;;;13.93;5.32;;;12.20;99.90;;;;;;5054040;28;20659;-65
2023/04/24 09:30:30;;;;;;;12.13;5.57;;;12.00;99.90;;;;;;5047166;28;20193;-65
2023/04/24 09:33:14;;;;;;;7.28;4.75;;;11.90;99.90;;;;;;5043581;28;20198;-65
2023/04/24 09:35:42;;;;;;;6.90;4.80;;;11.90;99.90;;;;;;5048132;28;20190;-65
2023/04/24 09:38:08;;;;;;;8.63;4.95;;;11.90;99.90;;;;;;5041143;28;20202;-67
2023/04/24 09:40:34;;;;;;;6.60;4.18;;;12.20;99.90;;;;;;5041706;28;20178;-67
2023/04/24 09:43:03;;;;;;;4.88;4.43;;;12.60;99.90;;;;;;5042960;28;20182;-66
2023/04/24 09:45:35;;;;;;;9.13;4.38;;;13.10;99.90;;;;;;5052978;28;20213;-67
2023/04/24 09:48:01;;;;;;;7.43;3.88;;;13.50;99.90;;;;;;5046287;28;20194;-65
2023/04/24 09:50:27;;;;;;;6.38;3.90;;;13.60;99.90;;;;;;5051823;28;20647;-67
2023/04/24 09:53:02;;;;;;;5.90;3.67;;;13.40;99.90;;;;;;5054111;28;20285;-65
2023/04/24 09:55:28;;;;;;;6.25;4.05;;;13.50;99.90;;;;;;5051398;28;20178;-64
2023/04/24 09:58:01;;;;;;;7.28;5.20;;;13.30;99.90;;;;;;5043557;28;20308;-67
2023/04/24 10:00:28;;;;;;;7.25;4.10;;;12.70;99.90;;;;;;5050099;28;20269;-68
2023/04/24 10:03:02;;;;;;;10.48;4.75;;;12.60;99.90;;;;;;5051208;28;20178;-65
2023/04/24 10:05:32;;;;;;;5.35;4.32;;;12.60;99.90;;;;;;5053878;28;20186;-65
2023/04/24 10:08:06;;;;;;;8.68;4.80;;;12.70;99.90;;;;;;5042873;28;20193;-66
2023/04/24 10:10:35;;;;;;;8.98;4.53;;;12.80;99.90;;;;;;5053646;28;20185;-65
2023/04/24 10:13:01;;;;;;;7.30;4.75;;;13.00;99.90;;;;;;5051657;28;20186;-66
2023/04/24 10:15:27;;;;;;;6.68;4.68;;;13.20;99.90;;;;;;5050864;28;20647;-65
2023/04/24 10:17:53;;;;;;;6.03;3.65;;;13.20;99.90;;;;;;5052858;28;20317;-67
2023/04/24 10:20:30;;;;;;;4.80;4.22;;;13.10;99.90;;;;;;5038894;28;20324;-65
2023/04/24 10:22:57;;;;;;;13.38;4.78;;;13.00;99.90;;;;;;5037786;28;20226;-65
2023/04/24 10:25:25;;;;;;;11.48;3.83;;;13.40;99.90;;;;;;5048011;28;20190;-65
2023/04/24 10:27:52;;;;;;;6.47;3.65;;;13.50;99.90;;;;;;5079569;28;20184;-66
2023/04/24 10:30:19;;;;;;;6.20;4.10;;;13.40;99.90;;;;;;5051209;28;20192;-66
2023/04/24 10:32:46;;;;;;;9.00;4.03;;;13.20;99.90;;;;;;5043570;28;20552;-65
2023/04/24 10:35:14;;;;;;;10.35;5.18;;;13.20;99.90;;;;;;5051547;28;20236;-65
2023/04/24 10:37:46;;;;;;;9.70;5.25;;;12.90;99.90;;;;;;5052894;28;20235;-66
2023/04/24 10:40:17;;;;;;;7.95;4.25;;;13.00;99.90;;;;;;5047798;28;20177;-66
2023/04/24 10:42:46;;;;;;;12.18;5.50;;;13.00;99.90;;;;;;5051562;28;20186;-65
2023/04/24 10:45:21;;;;;;;9.02;3.80;;;13.40;99.90;;;;;;5052854;28;20247;-65
2023/04/24 10:47:57;;;;;;;13.27;6.40;;;13.50;99.90;;;;;;5036526;28;20265;-65
2023/04/24 10:50:22;;;;;;;7.63;4.18;;;13.90;99.90;;;;;;5049256;28;20181;-67
2023/04/24 10:52:54;;;;;;;10.38;5.10;;;14.10;99.90;;;;;;5045232;28;20670;-65
2023/04/24 10:55:46;;;;;;;4.32;3.92;;;13.90;99.90;;;;;;5037768;28;20542;-65
2023/04/24 10:58:12;;;;;;;11.52;3.95;;;14.10;99.90;;;;;;5053165;28;20194;-64
2023/04/24 11:00:39;;;;;;;6.20;4.15;;;13.90;99.90;;;;;;5050807;28;20248;-65
2023/04/24 11:03:32;;;;;;;7.63;3.75;;;14.00;99.90;;;;;;5047674;28;20182;-65
2023/04/24 11:06:06;;;;;;;5.55;4.20;;;14.10;99.90;;;;;;5048036;28;20217;-65
2023/04/24 11:08:42;;;;;;;6.38;5.20;;;13.70;99.90;;;;;;5045377;28;20222;-64
2023/04/24 11:11:18;;;;;;;5.97;4.57;;;13.60;99.90;;;;;;5041612;28;20669;-65
2023/04/24 11:13:55;;;;;;;7.60;4.22;;;13.80;99.90;;;;;;5052749;28;20197;-65
2023/04/24 11:16:34;;;;;;;11.43;5.15;;;14.20;99.90;;;;;;5036843;28;20178;-65
2023/04/24 11:19:24;;;;;;;7.28;3.85;;;14.30;99.90;;;;;;5051793;28;20593;-65
2023/04/24 11:22:01;;;;;;;6.47;4.85;;;14.50;99.90;;;;;;5048915;28;20658;-65
2023/04/24 11:24:35;;;;;;;8.50;4.55;;;14.50;99.90;;;;;;5049621;28;20182;-65
2023/04/24 11:27:04;;;;;;;5.07;4.15;;;14.50;99.90;;;;;;5040554;28;20621;-66
2023/04/24 11:29:49;;;;;;;7.60;4.57;;;14.40;99.90;;;;;;5048886;28;20194;-65
2023/04/24 11:32:29;;;;;;;5.82;4.50;;;14.30;99.90;;;;;;5052423;28;20186;-66
2023/04/24 11:35:00;;;;;;;10.38;5.35;;;13.80;99.90;;;;;;5041713;28;20197;-66
2023/04/24 11:37:34;;;;;;;10.20;4.53;;;13.50;99.90;;;;;;5049616;28;20196;-66
2023/04/24 11:39:59;;;;;;;6.80;4.32;;;13.40;99.90;;;;;;5046353;28;20224;-66
2023/04/24 11:42:25;;;;;;;6.50;4.75;;;13.60;99.90;;;;;;5050598;28;20262;-66
2023/04/24 11:44:55;;;;;;;7.78;3.72;;;13.80;99.90;;;;;;5046065;28;20178;-66
2023/04/24 11:47:33;;;;;;;5.80;4.40;;;14.00;99.90;;;;;;5052103;28;20629;-65
2023/04/24 11:50:00;;;;;;;7.05;4.10;;;13.80;99.90;;;;;;5051215;28;20660;-65
2023/04/24 11:52:29;;;;;;;6.38;4.70;;;13.80;99.90;;;;;;5052245;28;20174;-65
2023/04/24 11:54:55;;;;;;;5.18;4.22;;;14.00;99.90;;;;;;5049633;28;20232;-64
2023/04/24 11:57:23;;;;;;;5.57;4.07;;;14.30;99.90;;;;;;5039221;28;20293;-64
2023/04/24 11:59:49;;;;;;;8.93;4.45;;;14.40;99.90;;;;;;5043937;28;20224;-64
2023/04/24 12:02:26;;;;;;;6.95;4.60;;;14.50;99.90;;;;;;5047278;28;20182;-64
2023/04/24 12:04:53;;;;;;;7.00;4.55;;;14.20;99.90;;;;;;5047520;28;20178;-64
2023/04/24 12:07:19;;;;;;;4.78;4.30;;;13.90;99.90;;;;;;5037656;28;20213;-64
2023/04/24 12:09:46;;;;;;;6.28;4.30;;;13.70;99.90;;;;;;5051945;28;20235;-65
2023/04/24 12:12:17;;;;;;;10.07;4.80;;;13.40;99.90;;;;;;5051390;28;20190;-65
2023/04/24 12:15:07;;;;;;;4.32;3.75;;;13.50;99.90;;;;;;5051857;28;20182;-65
2023/04/24 12:17:34;;;;;;;8.95;4.55;;;13.60;99.90;;;;;;5051310;28;20194;-65
2023/04/24 12:20:07;;;;;;;10.73;5.38;;;13.50;99.90;;;;;;5047373;28;20322;-64
2023/04/24 12:22:47;;;;;;;7.53;3.95;;;13.60;99.90;;;;;;5040222;28;20179;-64
2023/04/24 12:25:14;;;;;;;7.68;4.57;;;13.60;99.90;;;;;;5049016;28;20580;-67
2023/04/24 12:27:40;;;;;;;6.63;5.03;;;13.80;99.90;;;;;;5045584;28;20269;-66
2023/04/24 12:30:11;;;;;;;7.55;5.45;;;14.00;99.90;;;;;;5050188;28;20241;-66
2023/04/24 12:32:42;;;;;;;12.35;4.78;;;13.90;99.90;;;;;;5051109;28;20182;-68
2023/04/24 12:35:08;;;;;;;6.22;3.55;;;13.90;99.90;;;;;;5065011;28;20205;-66
2023/04/24 12:37:34;;;;;;;10.20;5.30;;;14.10;99.90;;;;;;5046745;28;20194;-65
2023/04/24 12:40:07;;;;;;;8.27;5.25;;;14.30;99.90;;;;;;5054216;28;20195;-66
2023/04/24 12:42:34;;;;;;;9.18;5.50;;;14.40;99.90;;;;;;5053798;28;20500;-66